sensor_id;sensor_type;location;lat;lon;timestamp;P1;durP1;ratioP1;P2;durP2;ratioP2
22907;SDS011;11620;50.050;8.690;2023-02-21T00:01:59;0.80;;;0.80;;
22907;SDS011;11620;50.050;8.690;2023-02-21T00:05:04;0.70;;;0.70;;
22907;SDS011;11620;50.050;8.690;2023-02-21T00:08:08;0.70;;;0.70;;
22907;SDS011;11620;50.050;8.690;2023-02-21T00:11:16;0.60;;;0.60;;
22907;SDS011;11620;50.050;8.690;2023-02-21T00:14:21;0.70;;;0.70;;
22907;SDS011;11620;50.050;8.690;2023-02-21T00:17:26;0.70;;;0.70;;
22907;SDS011;11620;50.050;8.690;2023-02-21T00:20:31;0.70;;;0.70;;
22907;SDS011;11620;50.050;8.690;2023-02-21T00:23:35;0.60;;;0.60;;
22907;SDS011;11620;50.050;8.690;2023-02-21T00:26:40;0.70;;;0.70;;
22907;SDS011;11620;50.050;8.690;2023-02-21T00:29:46;0.70;;;0.70;;
22907;SDS011;11620;50.050;8.690;2023-02-21T00:32:52;0.77;;;0.77;;
22907;SDS011;11620;50.050;8.690;2023-02-21T00:35:56;0.67;;;0.67;;
22907;SDS011;11620;50.050;8.690;2023-02-21T00:39:01;0.70;;;0.70;;
22907;SDS011;11620;50.050;8.690;2023-02-21T00:42:06;0.80;;;0.80;;
22907;SDS011;11620;50.050;8.690;2023-02-21T00:45:11;0.60;;;0.60;;
22907;SDS011;11620;50.050;8.690;2023-02-21T00:48:19;0.70;;;0.70;;
22907;SDS011;11620;50.050;8.690;2023-02-21T00:51:24;0.60;;;0.60;;
22907;SDS011;11620;50.050;8.690;2023-02-21T00:54:29;0.70;;;0.70;;
22907;SDS011;11620;50.050;8.690;2023-02-21T00:57:34;0.70;;;0.70;;
22907;SDS011;11620;50.050;8.690;2023-02-21T01:00:39;0.70;;;0.70;;
22907;SDS011;11620;50.050;8.690;2023-02-21T01:03:44;0.50;;;0.50;;
22907;SDS011;11620;50.050;8.690;2023-02-21T01:06:49;0.60;;;0.60;;
22907;SDS011;11620;50.050;8.690;2023-02-21T01:09:54;0.60;;;0.60;;
22907;SDS011;11620;50.050;8.690;2023-02-21T01:12:59;0.70;;;0.70;;
22907;SDS011;11620;50.050;8.690;2023-02-21T01:16:05;0.80;;;0.80;;
22907;SDS011;11620;50.050;8.690;2023-02-21T01:19:10;0.80;;;0.80;;
22907;SDS011;11620;50.050;8.690;2023-02-21T01:22:15;0.80;;;0.80;;
22907;SDS011;11620;50.050;8.690;2023-02-21T01:25:20;0.70;;;0.70;;
22907;SDS011;11620;50.050;8.690;2023-02-21T01:28:25;0.60;;;0.60;;
22907;SDS011;11620;50.050;8.690;2023-02-21T01:31:30;0.70;;;0.70;;
22907;SDS011;11620;50.050;8.690;2023-02-21T01:34:38;0.60;;;0.60;;
22907;SDS011;11620;50.050;8.690;2023-02-21T01:37:43;0.70;;;0.70;;
22907;SDS011;11620;50.050;8.690;2023-02-21T01:40:48;0.70;;;0.70;;
22907;SDS011;11620;50.050;8.690;2023-02-21T01:44:04;0.70;;;0.70;;
22907;SDS011;11620;50.050;8.690;2023-02-21T01:47:10;0.60;;;0.60;;
22907;SDS011;11620;50.050;8.690;2023-02-21T01:50:20;0.70;;;0.70;;
22907;SDS011;11620;50.050;8.690;2023-02-21T01:53:33;0.67;;;0.67;;
22907;SDS011;11620;50.050;8.690;2023-02-21T01:56:38;0.80;;;0.80;;
22907;SDS011;11620;50.050;8.690;2023-02-21T01:59:43;0.70;;;0.70;;
22907;SDS011;11620;50.050;8.690;2023-02-21T02:02:51;0.60;;;0.60;;
22907;SDS011;11620;50.050;8.690;2023-02-21T02:06:02;0.80;;;0.80;;
22907;SDS011;11620;50.050;8.690;2023-02-21T02:09:16;0.70;;;0.70;;
22907;SDS011;11620;50.050;8.690;2023-02-21T02:33:41;0.70;;;0.70;;
22907;SDS011;11620;50.050;8.690;2023-02-21T02:36:47;0.80;;;0.80;;
22907;SDS011;11620;50.050;8.690;2023-02-21T02:39:45;0.70;;;0.70;;
22907;SDS011;11620;50.050;8.690;2023-02-21T02:42:51;0.70;;;0.70;;
22907;SDS011;11620;50.050;8.690;2023-02-21T02:51:54;0.70;;;0.70;;
22907;SDS011;11620;50.050;8.690;2023-02-21T02:58:13;0.70;;;0.70;;
22907;SDS011;11620;50.050;8.690;2023-02-21T03:10:39;0.70;;;0.70;;
22907;SDS011;11620;50.050;8.690;2023-02-21T03:16:46;0.80;;;0.80;;
22907;SDS011;11620;50.050;8.690;2023-02-21T03:19:37;0.70;;;0.70;;
22907;SDS011;11620;50.050;8.690;2023-02-21T03:22:27;0.70;;;0.70;;
22907;SDS011;11620;50.050;8.690;2023-02-21T03:25:15;0.70;;;0.70;;
22907;SDS011;11620;50.050;8.690;2023-02-21T03:28:03;0.83;;;0.83;;
22907;SDS011;11620;50.050;8.690;2023-02-21T03:30:50;0.80;;;0.80;;
22907;SDS011;11620;50.050;8.690;2023-02-21T03:33:40;0.77;;;0.77;;
22907;SDS011;11620;50.050;8.690;2023-02-21T03:36:26;0.80;;;0.80;;
22907;SDS011;11620;50.050;8.690;2023-02-21T03:39:13;0.70;;;0.70;;
22907;SDS011;11620;50.050;8.690;2023-02-21T03:41:59;0.80;;;0.80;;
22907;SDS011;11620;50.050;8.690;2023-02-21T03:44:46;0.70;;;0.70;;
22907;SDS011;11620;50.050;8.690;2023-02-21T03:47:32;0.70;;;0.70;;
22907;SDS011;11620;50.050;8.690;2023-02-21T03:50:18;0.70;;;0.70;;
22907;SDS011;11620;50.050;8.690;2023-02-21T03:53:04;0.70;;;0.70;;
22907;SDS011;11620;50.050;8.690;2023-02-21T03:55:51;0.70;;;0.70;;
22907;SDS011;11620;50.050;8.690;2023-02-21T03:58:37;0.53;;;0.53;;
22907;SDS011;11620;50.050;8.690;2023-02-21T04:01:24;0.73;;;0.73;;
22907;SDS011;11620;50.050;8.690;2023-02-21T04:04:10;0.70;;;0.70;;
22907;SDS011;11620;50.050;8.690;2023-02-21T04:06:56;0.60;;;0.60;;
22907;SDS011;11620;50.050;8.690;2023-02-21T04:09:43;0.77;;;0.77;;
22907;SDS011;11620;50.050;8.690;2023-02-21T04:12:29;0.70;;;0.70;;
22907;SDS011;11620;50.050;8.690;2023-02-21T04:15:16;0.60;;;0.60;;
22907;SDS011;11620;50.050;8.690;2023-02-21T04:18:02;0.70;;;0.70;;
22907;SDS011;11620;50.050;8.690;2023-02-21T04:20:48;0.80;;;0.80;;
22907;SDS011;11620;50.050;8.690;2023-02-21T04:23:35;0.70;;;0.70;;
22907;SDS011;11620;50.050;8.690;2023-02-21T04:26:24;0.57;;;0.57;;
22907;SDS011;11620;50.050;8.690;2023-02-21T04:29:11;0.70;;;0.70;;
22907;SDS011;11620;50.050;8.690;2023-02-21T04:31:57;0.70;;;0.70;;
22907;SDS011;11620;50.050;8.690;2023-02-21T04:34:44;0.67;;;0.67;;
22907;SDS011;11620;50.050;8.690;2023-02-21T04:37:33;0.80;;;0.80;;
22907;SDS011;11620;50.050;8.690;2023-02-21T04:40:19;0.80;;;0.80;;
22907;SDS011;11620;50.050;8.690;2023-02-21T04:43:06;0.70;;;0.70;;
22907;SDS011;11620;50.050;8.690;2023-02-21T04:45:52;0.70;;;0.70;;
22907;SDS011;11620;50.050;8.690;2023-02-21T04:48:38;0.70;;;0.70;;
22907;SDS011;11620;50.050;8.690;2023-02-21T04:51:25;0.73;;;0.73;;
22907;SDS011;11620;50.050;8.690;2023-02-21T04:54:14;0.70;;;0.70;;
22907;SDS011;11620;50.050;8.690;2023-02-21T04:57:01;0.70;;;0.70;;
22907;SDS011;11620;50.050;8.690;2023-02-21T04:59:47;0.80;;;0.80;;
22907;SDS011;11620;50.050;8.690;2023-02-21T05:02:33;0.70;;;0.70;;
22907;SDS011;11620;50.050;8.690;2023-02-21T05:05:20;0.70;;;0.70;;
22907;SDS011;11620;50.050;8.690;2023-02-21T05:08:06;0.80;;;0.80;;
22907;SDS011;11620;50.050;8.690;2023-02-21T05:10:52;0.80;;;0.80;;
22907;SDS011;11620;50.050;8.690;2023-02-21T05:13:39;0.67;;;0.67;;
22907;SDS011;11620;50.050;8.690;2023-02-21T05:16:26;0.60;;;0.60;;
22907;SDS011;11620;50.050;8.690;2023-02-21T05:19:17;0.60;;;0.60;;
22907;SDS011;11620;50.050;8.690;2023-02-21T05:22:11;0.73;;;0.73;;
22907;SDS011;11620;50.050;8.690;2023-02-21T05:24:58;0.80;;;0.80;;
22907;SDS011;11620;50.050;8.690;2023-02-21T05:27:44;0.77;;;0.77;;
22907;SDS011;11620;50.050;8.690;2023-02-21T05:30:31;0.63;;;0.63;;
22907;SDS011;11620;50.050;8.690;2023-02-21T05:33:17;0.70;;;0.70;;
22907;SDS011;11620;50.050;8.690;2023-02-21T05:36:04;0.70;;;0.70;;
22907;SDS011;11620;50.050;8.690;2023-02-21T05:38:51;0.70;;;0.70;;
22907;SDS011;11620;50.050;8.690;2023-02-21T05:41:44;0.60;;;0.60;;
22907;SDS011;11620;50.050;8.690;2023-02-21T05:44:35;0.70;;;0.70;;
22907;SDS011;11620;50.050;8.690;2023-02-21T05:47:21;0.80;;;0.80;;
22907;SDS011;11620;50.050;8.690;2023-02-21T05:50:07;0.60;;;0.60;;
22907;SDS011;11620;50.050;8.690;2023-02-21T05:52:55;0.70;;;0.70;;
22907;SDS011;11620;50.050;8.690;2023-02-21T05:55:44;0.60;;;0.60;;
22907;SDS011;11620;50.050;8.690;2023-02-21T05:58:31;0.70;;;0.70;;
22907;SDS011;11620;50.050;8.690;2023-02-21T06:01:17;0.60;;;0.60;;
22907;SDS011;11620;50.050;8.690;2023-02-21T06:04:04;0.70;;;0.70;;
22907;SDS011;11620;50.050;8.690;2023-02-21T06:06:52;0.80;;;0.80;;
22907;SDS011;11620;50.050;8.690;2023-02-21T06:09:38;0.60;;;0.60;;
22907;SDS011;11620;50.050;8.690;2023-02-21T06:12:25;0.73;;;0.73;;
22907;SDS011;11620;50.050;8.690;2023-02-21T06:15:11;0.63;;;0.63;;
22907;SDS011;11620;50.050;8.690;2023-02-21T06:17:57;0.67;;;0.67;;
22907;SDS011;11620;50.050;8.690;2023-02-21T06:20:44;0.70;;;0.70;;
22907;SDS011;11620;50.050;8.690;2023-02-21T06:23:30;0.60;;;0.60;;
22907;SDS011;11620;50.050;8.690;2023-02-21T06:26:17;0.80;;;0.80;;
22907;SDS011;11620;50.050;8.690;2023-02-21T06:29:04;0.70;;;0.70;;
22907;SDS011;11620;50.050;8.690;2023-02-21T06:31:54;0.80;;;0.80;;
22907;SDS011;11620;50.050;8.690;2023-02-21T06:34:44;0.73;;;0.73;;
22907;SDS011;11620;50.050;8.690;2023-02-21T06:37:30;0.70;;;0.70;;
22907;SDS011;11620;50.050;8.690;2023-02-21T06:40:16;0.70;;;0.70;;
22907;SDS011;11620;50.050;8.690;2023-02-21T06:43:03;0.60;;;0.60;;
22907;SDS011;11620;50.050;8.690;2023-02-21T06:45:49;0.70;;;0.70;;
22907;SDS011;11620;50.050;8.690;2023-02-21T06:48:35;0.60;;;0.60;;
22907;SDS011;11620;50.050;8.690;2023-02-21T06:51:22;0.67;;;0.67;;
22907;SDS011;11620;50.050;8.690;2023-02-21T06:54:14;0.67;;;0.67;;
22907;SDS011;11620;50.050;8.690;2023-02-21T06:57:01;0.70;;;0.70;;
22907;SDS011;11620;50.050;8.690;2023-02-21T06:59:48;0.70;;;0.70;;
22907;SDS011;11620;50.050;8.690;2023-02-21T07:02:34;0.60;;;0.60;;
22907;SDS011;11620;50.050;8.690;2023-02-21T07:05:20;0.60;;;0.60;;
22907;SDS011;11620;50.050;8.690;2023-02-21T07:08:07;0.70;;;0.70;;
22907;SDS011;11620;50.050;8.690;2023-02-21T07:10:53;0.53;;;0.53;;
22907;SDS011;11620;50.050;8.690;2023-02-21T07:13:40;0.73;;;0.73;;
22907;SDS011;11620;50.050;8.690;2023-02-21T07:16:26;0.70;;;0.70;;
22907;SDS011;11620;50.050;8.690;2023-02-21T07:19:13;0.70;;;0.70;;
22907;SDS011;11620;50.050;8.690;2023-02-21T07:22:00;0.60;;;0.60;;
22907;SDS011;11620;50.050;8.690;2023-02-21T07:24:46;0.63;;;0.63;;
22907;SDS011;11620;50.050;8.690;2023-02-21T07:27:33;0.60;;;0.60;;
22907;SDS011;11620;50.050;8.690;2023-02-21T07:30:19;0.63;;;0.63;;
22907;SDS011;11620;50.050;8.690;2023-02-21T07:33:06;0.60;;;0.60;;
22907;SDS011;11620;50.050;8.690;2023-02-21T07:35:52;0.80;;;0.80;;
22907;SDS011;11620;50.050;8.690;2023-02-21T07:38:39;0.63;;;0.63;;
22907;SDS011;11620;50.050;8.690;2023-02-21T07:41:25;0.60;;;0.60;;
22907;SDS011;11620;50.050;8.690;2023-02-21T07:44:11;0.70;;;0.70;;
22907;SDS011;11620;50.050;8.690;2023-02-21T07:46:58;0.70;;;0.70;;
22907;SDS011;11620;50.050;8.690;2023-02-21T07:49:44;0.70;;;0.70;;
22907;SDS011;11620;50.050;8.690;2023-02-21T07:52:31;0.70;;;0.70;;
22907;SDS011;11620;50.050;8.690;2023-02-21T07:55:17;0.70;;;0.70;;
22907;SDS011;11620;50.050;8.690;2023-02-21T07:58:04;0.77;;;0.77;;
22907;SDS011;11620;50.050;8.690;2023-02-21T08:00:50;0.70;;;0.70;;
22907;SDS011;11620;50.050;8.690;2023-02-21T08:03:37;0.80;;;0.80;;
22907;SDS011;11620;50.050;8.690;2023-02-21T08:06:25;0.67;;;0.67;;
22907;SDS011;11620;50.050;8.690;2023-02-21T08:09:11;0.70;;;0.70;;
22907;SDS011;11620;50.050;8.690;2023-02-21T08:11:58;0.70;;;0.70;;
22907;SDS011;11620;50.050;8.690;2023-02-21T08:14:44;0.70;;;0.70;;
22907;SDS011;11620;50.050;8.690;2023-02-21T08:17:31;0.70;;;0.70;;
22907;SDS011;11620;50.050;8.690;2023-02-21T08:20:17;0.70;;;0.70;;
22907;SDS011;11620;50.050;8.690;2023-02-21T08:23:04;0.80;;;0.80;;
22907;SDS011;11620;50.050;8.690;2023-02-21T08:25:50;0.60;;;0.60;;
22907;SDS011;11620;50.050;8.690;2023-02-21T08:28:36;0.80;;;0.80;;
22907;SDS011;11620;50.050;8.690;2023-02-21T08:31:23;0.80;;;0.80;;
22907;SDS011;11620;50.050;8.690;2023-02-21T08:34:09;0.80;;;0.80;;
22907;SDS011;11620;50.050;8.690;2023-02-21T08:36:56;0.80;;;0.80;;
22907;SDS011;11620;50.050;8.690;2023-02-21T08:39:43;0.80;;;0.80;;
22907;SDS011;11620;50.050;8.690;2023-02-21T08:42:34;0.80;;;0.80;;
22907;SDS011;11620;50.050;8.690;2023-02-21T08:45:21;0.80;;;0.80;;
22907;SDS011;11620;50.050;8.690;2023-02-21T08:48:08;0.70;;;0.70;;
22907;SDS011;11620;50.050;8.690;2023-02-21T08:50:55;0.70;;;0.70;;
22907;SDS011;11620;50.050;8.690;2023-02-21T08:53:41;0.60;;;0.60;;
22907;SDS011;11620;50.050;8.690;2023-02-21T08:56:28;0.80;;;0.80;;
22907;SDS011;11620;50.050;8.690;2023-02-21T08:59:17;0.80;;;0.80;;
22907;SDS011;11620;50.050;8.690;2023-02-21T09:02:04;0.70;;;0.70;;
22907;SDS011;11620;50.050;8.690;2023-02-21T09:04:50;0.80;;;0.80;;
22907;SDS011;11620;50.050;8.690;2023-02-21T09:07:37;0.60;;;0.60;;
22907;SDS011;11620;50.050;8.690;2023-02-21T09:10:24;0.80;;;0.80;;
22907;SDS011;11620;50.050;8.690;2023-02-21T09:13:11;0.70;;;0.70;;
22907;SDS011;11620;50.050;8.690;2023-02-21T09:15:58;0.60;;;0.60;;
22907;SDS011;11620;50.050;8.690;2023-02-21T09:18:55;0.70;;;0.70;;
22907;SDS011;11620;50.050;8.690;2023-02-21T09:21:46;0.70;;;0.70;;
22907;SDS011;11620;50.050;8.690;2023-02-21T09:24:33;0.80;;;0.80;;
22907;SDS011;11620;50.050;8.690;2023-02-21T09:27:19;0.70;;;0.70;;
22907;SDS011;11620;50.050;8.690;2023-02-21T09:30:06;0.83;;;0.83;;
22907;SDS011;11620;50.050;8.690;2023-02-21T09:32:58;0.60;;;0.60;;
22907;SDS011;11620;50.050;8.690;2023-02-21T09:35:45;0.80;;;0.80;;
22907;SDS011;11620;50.050;8.690;2023-02-21T09:38:31;0.80;;;0.80;;
22907;SDS011;11620;50.050;8.690;2023-02-21T09:41:18;0.70;;;0.70;;
22907;SDS011;11620;50.050;8.690;2023-02-21T09:44:05;0.77;;;0.77;;
22907;SDS011;11620;50.050;8.690;2023-02-21T09:46:57;0.60;;;0.60;;
22907;SDS011;11620;50.050;8.690;2023-02-21T09:49:47;0.50;;;0.50;;
22907;SDS011;11620;50.050;8.690;2023-02-21T09:52:37;0.70;;;0.70;;
22907;SDS011;11620;50.050;8.690;2023-02-21T09:58:19;0.60;;;0.60;;
22907;SDS011;11620;50.050;8.690;2023-02-21T10:01:08;0.70;;;0.70;;
22907;SDS011;11620;50.050;8.690;2023-02-21T10:07:21;0.67;;;0.67;;
22907;SDS011;11620;50.050;8.690;2023-02-21T10:10:36;0.70;;;0.70;;
22907;SDS011;11620;50.050;8.690;2023-02-21T10:13:42;0.70;;;0.70;;
22907;SDS011;11620;50.050;8.690;2023-02-21T10:16:40;0.70;;;0.70;;
22907;SDS011;11620;50.050;8.690;2023-02-21T10:19:35;0.70;;;0.70;;
22907;SDS011;11620;50.050;8.690;2023-02-21T10:22:27;0.60;;;0.60;;
22907;SDS011;11620;50.050;8.690;2023-02-21T10:25:22;0.63;;;0.63;;
22907;SDS011;11620;50.050;8.690;2023-02-21T10:28:19;0.50;;;0.50;;
22907;SDS011;11620;50.050;8.690;2023-02-21T10:31:10;0.70;;;0.70;;
22907;SDS011;11620;50.050;8.690;2023-02-21T10:34:02;0.70;;;0.70;;
22907;SDS011;11620;50.050;8.690;2023-02-21T10:36:53;0.60;;;0.60;;
22907;SDS011;11620;50.050;8.690;2023-02-21T10:39:42;0.60;;;0.60;;
22907;SDS011;11620;50.050;8.690;2023-02-21T10:42:38;0.70;;;0.70;;
22907;SDS011;11620;50.050;8.690;2023-02-21T10:45:33;0.50;;;0.50;;
22907;SDS011;11620;50.050;8.690;2023-02-21T10:48:34;0.77;;;0.77;;
22907;SDS011;11620;50.050;8.690;2023-02-21T10:51:30;0.80;;;0.80;;
22907;SDS011;11620;50.050;8.690;2023-02-21T10:54:22;0.70;;;0.70;;
22907;SDS011;11620;50.050;8.690;2023-02-21T10:57:10;0.50;;;0.50;;
22907;SDS011;11620;50.050;8.690;2023-02-21T11:00:01;0.60;;;0.60;;
22907;SDS011;11620;50.050;8.690;2023-02-21T11:02:55;0.50;;;0.50;;
22907;SDS011;11620;50.050;8.690;2023-02-21T11:05:47;0.52;;;0.52;;
22907;SDS011;11620;50.050;8.690;2023-02-21T11:08:42;0.40;;;0.40;;
22907;SDS011;11620;50.050;8.690;2023-02-21T11:17:11;0.50;;;0.50;;
22907;SDS011;11620;50.050;8.690;2023-02-21T11:20:16;0.52;;;0.52;;
22907;SDS011;11620;50.050;8.690;2023-02-21T11:26:10;0.50;;;0.50;;
22907;SDS011;11620;50.050;8.690;2023-02-21T11:29:05;0.40;;;0.40;;
22907;SDS011;11620;50.050;8.690;2023-02-21T11:31:55;0.60;;;0.60;;
22907;SDS011;11620;50.050;8.690;2023-02-21T11:34:41;0.50;;;0.50;;
22907;SDS011;11620;50.050;8.690;2023-02-21T11:37:33;0.55;;;0.55;;
22907;SDS011;11620;50.050;8.690;2023-02-21T11:40:44;0.50;;;0.50;;
22907;SDS011;11620;50.050;8.690;2023-02-21T11:43:35;0.60;;;0.60;;
22907;SDS011;11620;50.050;8.690;2023-02-21T11:46:43;0.50;;;0.50;;
22907;SDS011;11620;50.050;8.690;2023-02-21T11:52:51;0.55;;;0.55;;
22907;SDS011;11620;50.050;8.690;2023-02-21T11:56:24;0.50;;;0.50;;
22907;SDS011;11620;50.050;8.690;2023-02-21T12:05:50;0.50;;;0.50;;
22907;SDS011;11620;50.050;8.690;2023-02-21T12:09:12;0.60;;;0.60;;
22907;SDS011;11620;50.050;8.690;2023-02-21T12:12:31;0.50;;;0.50;;
22907;SDS011;11620;50.050;8.690;2023-02-21T12:15:25;0.60;;;0.60;;
22907;SDS011;11620;50.050;8.690;2023-02-21T12:24:50;0.50;;;0.50;;
22907;SDS011;11620;50.050;8.690;2023-02-21T12:28:14;0.43;;;0.43;;
22907;SDS011;11620;50.050;8.690;2023-02-21T12:31:26;0.50;;;0.50;;
22907;SDS011;11620;50.050;8.690;2023-02-21T12:38:35;0.40;;;0.40;;
22907;SDS011;11620;50.050;8.690;2023-02-21T12:44:54;0.50;;;0.50;;
22907;SDS011;11620;50.050;8.690;2023-02-21T12:51:12;0.50;;;0.50;;
22907;SDS011;11620;50.050;8.690;2023-02-21T12:57:23;0.55;;;0.55;;
22907;SDS011;11620;50.050;8.690;2023-02-21T13:00:23;0.50;;;0.50;;
22907;SDS011;11620;50.050;8.690;2023-02-21T13:06:20;0.60;;;0.60;;
22907;SDS011;11620;50.050;8.690;2023-02-21T13:12:27;0.57;;;0.57;;
22907;SDS011;11620;50.050;8.690;2023-02-21T13:15:24;0.45;;;0.45;;
22907;SDS011;11620;50.050;8.690;2023-02-21T13:24:13;0.50;;;0.50;;
22907;SDS011;11620;50.050;8.690;2023-02-21T13:27:12;0.60;;;0.60;;
22907;SDS011;11620;50.050;8.690;2023-02-21T13:30:19;0.50;;;0.50;;
22907;SDS011;11620;50.050;8.690;2023-02-21T13:33:23;0.40;;;0.40;;
22907;SDS011;11620;50.050;8.690;2023-02-21T13:39:29;0.57;;;0.57;;
22907;SDS011;11620;50.050;8.690;2023-02-21T13:42:21;0.50;;;0.50;;
22907;SDS011;11620;50.050;8.690;2023-02-21T13:45:15;0.40;;;0.40;;
22907;SDS011;11620;50.050;8.690;2023-02-21T13:50:57;0.43;;;0.43;;
22907;SDS011;11620;50.050;8.690;2023-02-21T13:56:56;0.40;;;0.40;;
22907;SDS011;11620;50.050;8.690;2023-02-21T13:59:42;0.50;;;0.50;;
22907;SDS011;11620;50.050;8.690;2023-02-21T14:02:28;0.52;;;0.52;;
22907;SDS011;11620;50.050;8.690;2023-02-21T14:05:18;0.60;;;0.60;;
22907;SDS011;11620;50.050;8.690;2023-02-21T14:08:07;0.43;;;0.43;;
22907;SDS011;11620;50.050;8.690;2023-02-21T14:13:57;0.50;;;0.50;;
22907;SDS011;11620;50.050;8.690;2023-02-21T14:20:02;0.50;;;0.50;;
22907;SDS011;11620;50.050;8.690;2023-02-21T14:22:50;0.40;;;0.40;;
22907;SDS011;11620;50.050;8.690;2023-02-21T14:25:38;0.50;;;0.50;;
22907;SDS011;11620;50.050;8.690;2023-02-21T14:31:47;0.50;;;0.50;;
22907;SDS011;11620;50.050;8.690;2023-02-21T14:49:36;0.55;;;0.55;;
22907;SDS011;11620;50.050;8.690;2023-02-21T15:02:13;0.50;;;0.50;;
22907;SDS011;11620;50.050;8.690;2023-02-21T15:08:39;0.50;;;0.50;;
22907;SDS011;11620;50.050;8.690;2023-02-21T15:11:33;0.50;;;0.50;;
22907;SDS011;11620;50.050;8.690;2023-02-21T15:14:25;0.50;;;0.50;;
22907;SDS011;11620;50.050;8.690;2023-02-21T15:17:21;0.30;;;0.30;;
22907;SDS011;11620;50.050;8.690;2023-02-21T15:20:14;0.40;;;0.40;;
22907;SDS011;11620;50.050;8.690;2023-02-21T15:23:08;0.40;;;0.40;;
22907;SDS011;11620;50.050;8.690;2023-02-21T15:25:59;0.40;;;0.40;;
22907;SDS011;11620;50.050;8.690;2023-02-21T15:31:53;0.45;;;0.45;;
22907;SDS011;11620;50.050;8.690;2023-02-21T15:34:41;0.50;;;0.50;;
22907;SDS011;11620;50.050;8.690;2023-02-21T15:37:30;0.60;;;0.60;;
22907;SDS011;11620;50.050;8.690;2023-02-21T15:40:20;0.40;;;0.40;;
22907;SDS011;11620;50.050;8.690;2023-02-21T15:43:13;0.40;;;0.40;;
22907;SDS011;11620;50.050;8.690;2023-02-21T15:46:17;0.40;;;0.40;;
22907;SDS011;11620;50.050;8.690;2023-02-21T15:49:20;0.50;;;0.50;;
22907;SDS011;11620;50.050;8.690;2023-02-21T15:52:24;0.50;;;0.50;;
22907;SDS011;11620;50.050;8.690;2023-02-21T15:55:36;0.40;;;0.40;;
22907;SDS011;11620;50.050;8.690;2023-02-21T15:58:23;0.45;;;0.45;;
22907;SDS011;11620;50.050;8.690;2023-02-21T16:01:11;0.40;;;0.40;;
22907;SDS011;11620;50.050;8.690;2023-02-21T16:07:14;0.43;;;0.43;;
22907;SDS011;11620;50.050;8.690;2023-02-21T16:10:03;0.40;;;0.40;;
22907;SDS011;11620;50.050;8.690;2023-02-21T16:12:54;0.43;;;0.43;;
22907;SDS011;11620;50.050;8.690;2023-02-21T16:15:43;0.40;;;0.40;;
22907;SDS011;11620;50.050;8.690;2023-02-21T16:18:30;0.50;;;0.50;;
22907;SDS011;11620;50.050;8.690;2023-02-21T16:21:22;0.38;;;0.38;;
22907;SDS011;11620;50.050;8.690;2023-02-21T16:27:14;0.40;;;0.40;;
22907;SDS011;11620;50.050;8.690;2023-02-21T16:30:02;0.52;;;0.52;;
22907;SDS011;11620;50.050;8.690;2023-02-21T16:32:50;0.50;;;0.50;;
22907;SDS011;11620;50.050;8.690;2023-02-21T16:35:39;0.40;;;0.40;;
22907;SDS011;11620;50.050;8.690;2023-02-21T16:38:26;0.50;;;0.50;;
22907;SDS011;11620;50.050;8.690;2023-02-21T16:41:13;0.47;;;0.47;;
22907;SDS011;11620;50.050;8.690;2023-02-21T16:44:00;0.30;;;0.30;;
22907;SDS011;11620;50.050;8.690;2023-02-21T16:46:46;0.40;;;0.40;;
22907;SDS011;11620;50.050;8.690;2023-02-21T16:49:35;0.50;;;0.50;;
22907;SDS011;11620;50.050;8.690;2023-02-21T16:52:22;0.45;;;0.45;;
22907;SDS011;11620;50.050;8.690;2023-02-21T16:55:12;0.40;;;0.40;;
22907;SDS011;11620;50.050;8.690;2023-02-21T16:58:03;0.60;;;0.60;;
22907;SDS011;11620;50.050;8.690;2023-02-21T17:00:54;0.50;;;0.50;;
22907;SDS011;11620;50.050;8.690;2023-02-21T17:03:43;0.50;;;0.50;;
22907;SDS011;11620;50.050;8.690;2023-02-21T17:06:29;0.60;;;0.60;;
22907;SDS011;11620;50.050;8.690;2023-02-21T17:09:17;0.50;;;0.50;;
22907;SDS011;11620;50.050;8.690;2023-02-21T17:12:06;0.40;;;0.40;;
22907;SDS011;11620;50.050;8.690;2023-02-21T17:14:53;0.50;;;0.50;;
22907;SDS011;11620;50.050;8.690;2023-02-21T17:17:39;0.50;;;0.50;;
22907;SDS011;11620;50.050;8.690;2023-02-21T17:20:26;0.50;;;0.50;;
22907;SDS011;11620;50.050;8.690;2023-02-21T17:23:12;0.40;;;0.40;;
22907;SDS011;11620;50.050;8.690;2023-02-21T17:25:59;0.30;;;0.30;;
22907;SDS011;11620;50.050;8.690;2023-02-21T17:28:45;0.60;;;0.60;;
22907;SDS011;11620;50.050;8.690;2023-02-21T17:31:32;0.50;;;0.50;;
22907;SDS011;11620;50.050;8.690;2023-02-21T17:34:18;0.45;;;0.45;;
22907;SDS011;11620;50.050;8.690;2023-02-21T17:37:05;0.50;;;0.50;;
22907;SDS011;11620;50.050;8.690;2023-02-21T17:39:52;0.50;;;0.50;;
22907;SDS011;11620;50.050;8.690;2023-02-21T17:42:40;0.50;;;0.50;;
22907;SDS011;11620;50.050;8.690;2023-02-21T17:45:26;0.60;;;0.60;;
22907;SDS011;11620;50.050;8.690;2023-02-21T17:48:12;0.40;;;0.40;;
22907;SDS011;11620;50.050;8.690;2023-02-21T17:50:58;0.50;;;0.50;;
22907;SDS011;11620;50.050;8.690;2023-02-21T17:53:46;0.50;;;0.50;;
22907;SDS011;11620;50.050;8.690;2023-02-21T17:56:33;0.50;;;0.50;;
22907;SDS011;11620;50.050;8.690;2023-02-21T17:59:19;0.60;;;0.60;;
22907;SDS011;11620;50.050;8.690;2023-02-21T18:02:05;0.55;;;0.55;;
22907;SDS011;11620;50.050;8.690;2023-02-21T18:04:55;0.70;;;0.70;;
22907;SDS011;11620;50.050;8.690;2023-02-21T18:07:50;0.50;;;0.50;;
22907;SDS011;11620;50.050;8.690;2023-02-21T18:10:37;0.50;;;0.50;;
22907;SDS011;11620;50.050;8.690;2023-02-21T18:13:24;0.60;;;0.60;;
22907;SDS011;11620;50.050;8.690;2023-02-21T18:16:10;0.50;;;0.50;;
22907;SDS011;11620;50.050;8.690;2023-02-21T18:18:56;0.50;;;0.50;;
22907;SDS011;11620;50.050;8.690;2023-02-21T18:21:46;0.60;;;0.60;;
22907;SDS011;11620;50.050;8.690;2023-02-21T18:24:32;0.60;;;0.60;;
22907;SDS011;11620;50.050;8.690;2023-02-21T18:27:19;0.57;;;0.57;;
22907;SDS011;11620;50.050;8.690;2023-02-21T18:29:45;0.60;;;0.60;;
22907;SDS011;11620;50.050;8.690;2023-02-21T18:32:29;0.60;;;0.60;;
22907;SDS011;11620;50.050;8.690;2023-02-21T18:35:16;0.50;;;0.50;;
22907;SDS011;11620;50.050;8.690;2023-02-21T18:38:03;0.57;;;0.57;;
22907;SDS011;11620;50.050;8.690;2023-02-21T18:40:49;0.60;;;0.60;;
22907;SDS011;11620;50.050;8.690;2023-02-21T18:43:35;0.50;;;0.50;;
22907;SDS011;11620;50.050;8.690;2023-02-21T18:46:22;0.57;;;0.57;;
22907;SDS011;11620;50.050;8.690;2023-02-21T18:49:09;0.60;;;0.60;;
22907;SDS011;11620;50.050;8.690;2023-02-21T18:51:55;0.60;;;0.60;;
22907;SDS011;11620;50.050;8.690;2023-02-21T18:54:46;0.50;;;0.50;;
22907;SDS011;11620;50.050;8.690;2023-02-21T18:57:34;0.60;;;0.60;;
22907;SDS011;11620;50.050;8.690;2023-02-21T19:00:20;0.60;;;0.60;;
22907;SDS011;11620;50.050;8.690;2023-02-21T19:03:08;0.60;;;0.60;;
22907;SDS011;11620;50.050;8.690;2023-02-21T19:05:57;0.67;;;0.67;;
22907;SDS011;11620;50.050;8.690;2023-02-21T19:08:44;0.60;;;0.60;;
22907;SDS011;11620;50.050;8.690;2023-02-21T19:11:31;0.65;;;0.65;;
22907;SDS011;11620;50.050;8.690;2023-02-21T19:14:17;0.68;;;0.68;;
22907;SDS011;11620;50.050;8.690;2023-02-21T19:17:04;0.50;;;0.50;;
22907;SDS011;11620;50.050;8.690;2023-02-21T19:19:50;0.50;;;0.50;;
22907;SDS011;11620;50.050;8.690;2023-02-21T19:22:37;0.60;;;0.60;;
22907;SDS011;11620;50.050;8.690;2023-02-21T19:25:23;0.70;;;0.70;;
22907;SDS011;11620;50.050;8.690;2023-02-21T19:28:12;0.67;;;0.67;;
22907;SDS011;11620;50.050;8.690;2023-02-21T19:30:58;0.60;;;0.60;;
22907;SDS011;11620;50.050;8.690;2023-02-21T19:33:45;0.50;;;0.50;;
22907;SDS011;11620;50.050;8.690;2023-02-21T19:36:31;0.50;;;0.50;;
22907;SDS011;11620;50.050;8.690;2023-02-21T19:39:17;0.50;;;0.50;;
22907;SDS011;11620;50.050;8.690;2023-02-21T19:42:04;0.70;;;0.70;;
22907;SDS011;11620;50.050;8.690;2023-02-21T19:44:51;0.57;;;0.57;;
22907;SDS011;11620;50.050;8.690;2023-02-21T19:47:37;0.57;;;0.57;;
22907;SDS011;11620;50.050;8.690;2023-02-21T19:50:23;0.60;;;0.60;;
22907;SDS011;11620;50.050;8.690;2023-02-21T19:53:10;0.57;;;0.57;;